MPM weather

Maputo Airport
Maputo, Maputo (city), Mozambique

Public forecast

Using degrees Celsius for public forecast. Weather courtesy of forecast.io.

Current aviation weather report (METAR) for Maputo Airport

Retrieved 2019/11/23 00:00 UTC (50 minutes ago):

FQMA 230000Z 04005KT 9999 BKN020 25/23 Q1012 NOSIG

Aviation forecast (TAF) for Maputo Airport

Retrieved 2019-11-23 00:00 UTC (50 minutes ago):

TAF FQMA 222200Z 2300/2406 35007KT 9999 FEW020 TX34/2313Z TN23/2303Z BECMG 2312/2314 06012KT BECMG 2318/2320 19010KT BKN020 FEW025CB PROB30 TEMPO 2318/2324 5000 -TSRA BKN015